sensor_id;sensor_type;location;lat;lon;timestamp;P1;durP1;ratioP1;P2;durP2;ratioP2
59062;SDS011;44851;45.648;9.004;2022-08-01T00:00:37;3.40;;;3.07;;
59062;SDS011;44851;45.648;9.004;2022-08-01T00:03:03;3.80;;;3.17;;
59062;SDS011;44851;45.648;9.004;2022-08-01T00:05:29;3.57;;;2.87;;
59062;SDS011;44851;45.648;9.004;2022-08-01T00:07:54;3.17;;;2.87;;
59062;SDS011;44851;45.648;9.004;2022-08-01T00:10:20;3.20;;;3.00;;
59062;SDS011;44851;45.648;9.004;2022-08-01T00:12:45;3.20;;;3.00;;
59062;SDS011;44851;45.648;9.004;2022-08-01T00:15:11;2.70;;;2.50;;
59062;SDS011;44851;45.648;9.004;2022-08-01T00:17:39;3.30;;;2.67;;
59062;SDS011;44851;45.648;9.004;2022-08-01T00:20:05;4.13;;;2.73;;
59062;SDS011;44851;45.648;9.004;2022-08-01T00:22:33;2.67;;;2.47;;
59062;SDS011;44851;45.648;9.004;2022-08-01T00:24:59;3.10;;;2.70;;
59062;SDS011;44851;45.648;9.004;2022-08-01T00:27:25;4.20;;;3.03;;
59062;SDS011;44851;45.648;9.004;2022-08-01T00:29:50;3.40;;;3.10;;
59062;SDS011;44851;45.648;9.004;2022-08-01T00:32:16;3.47;;;3.10;;
59062;SDS011;44851;45.648;9.004;2022-08-01T00:34:41;3.07;;;2.70;;
59062;SDS011;44851;45.648;9.004;2022-08-01T00:37:06;3.30;;;2.93;;
59062;SDS011;44851;45.648;9.004;2022-08-01T00:39:32;4.03;;;2.87;;
59062;SDS011;44851;45.648;9.004;2022-08-01T00:42:05;3.30;;;3.00;;
59062;SDS011;44851;45.648;9.004;2022-08-01T00:44:34;2.60;;;2.40;;
59062;SDS011;44851;45.648;9.004;2022-08-01T00:47:01;3.03;;;2.60;;
59062;SDS011;44851;45.648;9.004;2022-08-01T00:49:27;3.37;;;2.90;;
59062;SDS011;44851;45.648;9.004;2022-08-01T00:51:53;2.93;;;2.67;;
59062;SDS011;44851;45.648;9.004;2022-08-01T00:54:19;3.33;;;3.03;;
59062;SDS011;44851;45.648;9.004;2022-08-01T00:56:45;2.77;;;2.57;;
59062;SDS011;44851;45.648;9.004;2022-08-01T00:59:11;2.90;;;2.70;;
59062;SDS011;44851;45.648;9.004;2022-08-01T01:01:37;4.57;;;2.60;;
59062;SDS011;44851;45.648;9.004;2022-08-01T01:04:02;3.60;;;3.00;;
59062;SDS011;44851;45.648;9.004;2022-08-01T01:17:27;3.20;;;2.90;;
59062;SDS011;44851;45.648;9.004;2022-08-01T01:19:57;2.93;;;2.57;;
59062;SDS011;44851;45.648;9.004;2022-08-01T01:24:58;2.67;;;2.47;;
59062;SDS011;44851;45.648;9.004;2022-08-01T01:30:25;2.63;;;2.43;;
59062;SDS011;44851;45.648;9.004;2022-08-01T01:32:54;2.93;;;2.60;;
59062;SDS011;44851;45.648;9.004;2022-08-01T01:35:26;3.10;;;2.80;;
59062;SDS011;44851;45.648;9.004;2022-08-01T01:38:10;2.60;;;2.43;;
59062;SDS011;44851;45.648;9.004;2022-08-01T01:40:50;3.00;;;2.80;;
59062;SDS011;44851;45.648;9.004;2022-08-01T01:43:18;2.80;;;2.57;;
59062;SDS011;44851;45.648;9.004;2022-08-01T01:45:45;2.80;;;2.60;;
59062;SDS011;44851;45.648;9.004;2022-08-01T01:48:16;4.13;;;2.63;;
59062;SDS011;44851;45.648;9.004;2022-08-01T01:50:43;3.00;;;2.80;;
59062;SDS011;44851;45.648;9.004;2022-08-01T01:53:12;3.20;;;2.90;;
59062;SDS011;44851;45.648;9.004;2022-08-01T01:55:40;3.07;;;2.87;;
59062;SDS011;44851;45.648;9.004;2022-08-01T01:58:08;3.23;;;2.93;;
59062;SDS011;44851;45.648;9.004;2022-08-01T02:00:38;2.80;;;2.40;;
59062;SDS011;44851;45.648;9.004;2022-08-01T02:03:05;2.73;;;2.47;;
59062;SDS011;44851;45.648;9.004;2022-08-01T02:05:31;2.80;;;2.43;;
59062;SDS011;44851;45.648;9.004;2022-08-01T02:07:59;2.93;;;2.73;;
59062;SDS011;44851;45.648;9.004;2022-08-01T02:10:28;3.50;;;2.70;;
59062;SDS011;44851;45.648;9.004;2022-08-01T02:12:54;2.90;;;2.70;;
59062;SDS011;44851;45.648;9.004;2022-08-01T02:15:22;3.17;;;2.53;;
59062;SDS011;44851;45.648;9.004;2022-08-01T02:17:49;2.77;;;2.50;;
59062;SDS011;44851;45.648;9.004;2022-08-01T02:20:16;3.20;;;2.30;;
59062;SDS011;44851;45.648;9.004;2022-08-01T02:22:50;2.80;;;2.60;;
59062;SDS011;44851;45.648;9.004;2022-08-01T02:25:25;3.43;;;2.97;;
59062;SDS011;44851;45.648;9.004;2022-08-01T02:28:57;3.63;;;2.53;;
59062;SDS011;44851;45.648;9.004;2022-08-01T02:31:00;2.70;;;2.50;;
59062;SDS011;44851;45.648;9.004;2022-08-01T02:33:34;2.77;;;2.50;;
59062;SDS011;44851;45.648;9.004;2022-08-01T02:36:03;3.40;;;2.57;;
59062;SDS011;44851;45.648;9.004;2022-08-01T02:38:31;2.90;;;2.70;;
59062;SDS011;44851;45.648;9.004;2022-08-01T02:41:02;3.03;;;2.80;;
59062;SDS011;44851;45.648;9.004;2022-08-01T02:43:33;2.77;;;2.57;;
59062;SDS011;44851;45.648;9.004;2022-08-01T02:46:02;2.60;;;2.40;;
59062;SDS011;44851;45.648;9.004;2022-08-01T02:48:30;2.77;;;2.57;;
59062;SDS011;44851;45.648;9.004;2022-08-01T02:50:59;2.80;;;2.50;;
59062;SDS011;44851;45.648;9.004;2022-08-01T02:53:26;3.00;;;2.80;;
59062;SDS011;44851;45.648;9.004;2022-08-01T02:55:54;3.30;;;2.70;;
59062;SDS011;44851;45.648;9.004;2022-08-01T02:58:21;2.63;;;2.43;;
59062;SDS011;44851;45.648;9.004;2022-08-01T03:00:49;2.80;;;2.43;;
59062;SDS011;44851;45.648;9.004;2022-08-01T03:03:15;2.50;;;2.30;;
59062;SDS011;44851;45.648;9.004;2022-08-01T03:05:43;2.80;;;2.60;;
59062;SDS011;44851;45.648;9.004;2022-08-01T03:08:09;2.40;;;2.20;;
59062;SDS011;44851;45.648;9.004;2022-08-01T03:10:36;2.93;;;2.37;;
59062;SDS011;44851;45.648;9.004;2022-08-01T03:13:05;2.70;;;2.50;;
59062;SDS011;44851;45.648;9.004;2022-08-01T03:15:33;3.07;;;2.77;;
59062;SDS011;44851;45.648;9.004;2022-08-01T03:18:02;2.70;;;2.50;;
59062;SDS011;44851;45.648;9.004;2022-08-01T03:20:31;2.90;;;2.60;;
59062;SDS011;44851;45.648;9.004;2022-08-01T03:22:59;3.40;;;2.50;;
59062;SDS011;44851;45.648;9.004;2022-08-01T03:25:28;2.70;;;2.50;;
59062;SDS011;44851;45.648;9.004;2022-08-01T03:27:56;3.93;;;2.57;;
59062;SDS011;44851;45.648;9.004;2022-08-01T03:30:24;2.60;;;2.30;;
59062;SDS011;44851;45.648;9.004;2022-08-01T03:32:51;2.50;;;2.30;;
59062;SDS011;44851;45.648;9.004;2022-08-01T03:35:17;4.70;;;2.90;;
59062;SDS011;44851;45.648;9.004;2022-08-01T03:37:44;3.37;;;2.97;;
59062;SDS011;44851;45.648;9.004;2022-08-01T03:40:21;3.63;;;2.90;;
59062;SDS011;44851;45.648;9.004;2022-08-01T03:42:52;3.00;;;2.80;;
59062;SDS011;44851;45.648;9.004;2022-08-01T03:45:25;3.50;;;2.77;;
59062;SDS011;44851;45.648;9.004;2022-08-01T03:47:55;3.33;;;2.90;;
59062;SDS011;44851;45.648;9.004;2022-08-01T03:50:26;3.00;;;2.70;;
59062;SDS011;44851;45.648;9.004;2022-08-01T03:52:54;2.97;;;2.70;;
59062;SDS011;44851;45.648;9.004;2022-08-01T03:55:22;2.73;;;2.40;;
59062;SDS011;44851;45.648;9.004;2022-08-01T03:57:49;2.83;;;2.60;;
59062;SDS011;44851;45.648;9.004;2022-08-01T04:00:15;2.87;;;2.40;;
59062;SDS011;44851;45.648;9.004;2022-08-01T04:02:43;3.03;;;2.80;;
59062;SDS011;44851;45.648;9.004;2022-08-01T04:05:10;2.60;;;2.40;;
59062;SDS011;44851;45.648;9.004;2022-08-01T04:07:36;3.10;;;2.47;;
59062;SDS011;44851;45.648;9.004;2022-08-01T04:10:02;3.13;;;2.63;;
59062;SDS011;44851;45.648;9.004;2022-08-01T04:12:28;2.73;;;2.53;;
59062;SDS011;44851;45.648;9.004;2022-08-01T04:14:53;2.93;;;2.47;;
59062;SDS011;44851;45.648;9.004;2022-08-01T04:17:18;3.00;;;2.47;;
59062;SDS011;44851;45.648;9.004;2022-08-01T04:19:44;2.57;;;2.33;;
59062;SDS011;44851;45.648;9.004;2022-08-01T04:22:10;3.53;;;2.57;;
59062;SDS011;44851;45.648;9.004;2022-08-01T04:24:38;3.37;;;2.60;;
59062;SDS011;44851;45.648;9.004;2022-08-01T04:27:06;2.57;;;2.37;;
59062;SDS011;44851;45.648;9.004;2022-08-01T04:29:35;2.43;;;2.30;;
59062;SDS011;44851;45.648;9.004;2022-08-01T04:32:03;4.73;;;2.60;;
59062;SDS011;44851;45.648;9.004;2022-08-01T04:34:31;3.80;;;2.73;;
59062;SDS011;44851;45.648;9.004;2022-08-01T04:36:59;3.23;;;2.23;;
59062;SDS011;44851;45.648;9.004;2022-08-01T04:39:26;2.40;;;2.20;;
59062;SDS011;44851;45.648;9.004;2022-08-01T04:41:53;3.70;;;2.87;;
59062;SDS011;44851;45.648;9.004;2022-08-01T04:44:23;3.50;;;2.57;;
59062;SDS011;44851;45.648;9.004;2022-08-01T04:46:50;3.47;;;2.70;;
59062;SDS011;44851;45.648;9.004;2022-08-01T04:49:19;2.80;;;2.60;;
59062;SDS011;44851;45.648;9.004;2022-08-01T04:51:49;3.70;;;2.30;;
59062;SDS011;44851;45.648;9.004;2022-08-01T04:54:15;2.60;;;2.40;;
59062;SDS011;44851;45.648;9.004;2022-08-01T04:56:41;3.17;;;2.47;;
59062;SDS011;44851;45.648;9.004;2022-08-01T04:59:06;2.77;;;2.50;;
59062;SDS011;44851;45.648;9.004;2022-08-01T05:01:50;3.87;;;2.63;;
59062;SDS011;44851;45.648;9.004;2022-08-01T05:04:16;3.60;;;2.70;;
59062;SDS011;44851;45.648;9.004;2022-08-01T05:06:41;3.23;;;2.47;;
59062;SDS011;44851;45.648;9.004;2022-08-01T05:09:07;2.50;;;2.20;;
59062;SDS011;44851;45.648;9.004;2022-08-01T05:11:32;5.20;;;2.40;;
59062;SDS011;44851;45.648;9.004;2022-08-01T05:13:57;5.33;;;2.67;;
59062;SDS011;44851;45.648;9.004;2022-08-01T05:16:23;3.63;;;2.40;;
59062;SDS011;44851;45.648;9.004;2022-08-01T05:18:48;4.70;;;2.40;;
59062;SDS011;44851;45.648;9.004;2022-08-01T05:21:13;2.60;;;2.10;;
59062;SDS011;44851;45.648;9.004;2022-08-01T05:23:39;3.97;;;2.43;;
59062;SDS011;44851;45.648;9.004;2022-08-01T05:26:04;2.13;;;1.97;;
59062;SDS011;44851;45.648;9.004;2022-08-01T05:28:29;2.53;;;2.10;;
59062;SDS011;44851;45.648;9.004;2022-08-01T05:30:55;3.73;;;2.20;;
59062;SDS011;44851;45.648;9.004;2022-08-01T05:33:21;5.23;;;2.10;;
59062;SDS011;44851;45.648;9.004;2022-08-01T05:35:46;2.67;;;2.13;;
59062;SDS011;44851;45.648;9.004;2022-08-01T05:38:12;2.93;;;1.90;;
59062;SDS011;44851;45.648;9.004;2022-08-01T05:40:37;4.93;;;2.43;;
59062;SDS011;44851;45.648;9.004;2022-08-01T05:43:03;2.47;;;2.13;;
59062;SDS011;44851;45.648;9.004;2022-08-01T05:45:28;2.57;;;2.00;;
59062;SDS011;44851;45.648;9.004;2022-08-01T05:47:53;2.83;;;2.10;;
59062;SDS011;44851;45.648;9.004;2022-08-01T05:50:19;4.37;;;2.17;;
59062;SDS011;44851;45.648;9.004;2022-08-01T05:52:44;2.30;;;2.10;;
59062;SDS011;44851;45.648;9.004;2022-08-01T05:55:09;2.97;;;2.40;;
59062;SDS011;44851;45.648;9.004;2022-08-01T05:57:35;2.90;;;2.70;;
59062;SDS011;44851;45.648;9.004;2022-08-01T06:00:00;3.63;;;2.27;;
59062;SDS011;44851;45.648;9.004;2022-08-01T06:02:25;4.40;;;2.40;;
59062;SDS011;44851;45.648;9.004;2022-08-01T06:04:51;3.20;;;2.70;;
59062;SDS011;44851;45.648;9.004;2022-08-01T06:07:16;4.17;;;2.87;;
59062;SDS011;44851;45.648;9.004;2022-08-01T06:09:41;3.73;;;2.60;;
59062;SDS011;44851;45.648;9.004;2022-08-01T06:12:07;2.67;;;2.40;;
59062;SDS011;44851;45.648;9.004;2022-08-01T06:14:32;3.10;;;2.40;;
59062;SDS011;44851;45.648;9.004;2022-08-01T06:16:58;2.57;;;2.23;;
59062;SDS011;44851;45.648;9.004;2022-08-01T06:19:23;5.27;;;2.60;;
59062;SDS011;44851;45.648;9.004;2022-08-01T06:21:49;4.53;;;2.00;;
59062;SDS011;44851;45.648;9.004;2022-08-01T06:24:14;5.20;;;2.30;;
59062;SDS011;44851;45.648;9.004;2022-08-01T06:26:39;4.30;;;2.63;;
59062;SDS011;44851;45.648;9.004;2022-08-01T06:29:05;2.87;;;2.13;;
59062;SDS011;44851;45.648;9.004;2022-08-01T06:31:30;3.03;;;2.30;;
59062;SDS011;44851;45.648;9.004;2022-08-01T06:33:56;2.70;;;2.20;;
59062;SDS011;44851;45.648;9.004;2022-08-01T06:36:22;5.63;;;2.50;;
59062;SDS011;44851;45.648;9.004;2022-08-01T06:38:47;2.37;;;2.17;;
59062;SDS011;44851;45.648;9.004;2022-08-01T06:41:13;4.23;;;2.30;;
59062;SDS011;44851;45.648;9.004;2022-08-01T06:43:38;2.63;;;2.00;;
59062;SDS011;44851;45.648;9.004;2022-08-01T06:46:03;2.40;;;2.00;;
59062;SDS011;44851;45.648;9.004;2022-08-01T06:48:29;2.27;;;1.93;;
59062;SDS011;44851;45.648;9.004;2022-08-01T06:50:54;2.80;;;2.17;;
59062;SDS011;44851;45.648;9.004;2022-08-01T06:53:33;2.20;;;2.00;;
59062;SDS011;44851;45.648;9.004;2022-08-01T06:55:59;3.97;;;2.10;;
59062;SDS011;44851;45.648;9.004;2022-08-01T06:58:24;2.43;;;1.97;;
59062;SDS011;44851;45.648;9.004;2022-08-01T07:00:51;3.03;;;2.10;;
59062;SDS011;44851;45.648;9.004;2022-08-01T07:03:16;4.70;;;2.17;;
59062;SDS011;44851;45.648;9.004;2022-08-01T07:05:41;3.27;;;1.97;;
59062;SDS011;44851;45.648;9.004;2022-08-01T07:08:07;2.83;;;2.00;;
59062;SDS011;44851;45.648;9.004;2022-08-01T07:10:32;7.50;;;2.20;;
59062;SDS011;44851;45.648;9.004;2022-08-01T07:12:57;7.33;;;2.37;;
59062;SDS011;44851;45.648;9.004;2022-08-01T07:15:23;5.07;;;2.20;;
59062;SDS011;44851;45.648;9.004;2022-08-01T07:17:51;2.47;;;1.97;;
59062;SDS011;44851;45.648;9.004;2022-08-01T07:20:17;2.10;;;1.90;;
59062;SDS011;44851;45.648;9.004;2022-08-01T07:22:42;2.40;;;2.10;;
59062;SDS011;44851;45.648;9.004;2022-08-01T07:25:08;2.43;;;2.23;;
59062;SDS011;44851;45.648;9.004;2022-08-01T07:27:34;3.73;;;2.13;;
59062;SDS011;44851;45.648;9.004;2022-08-01T07:30:00;2.80;;;2.23;;
59062;SDS011;44851;45.648;9.004;2022-08-01T07:32:26;3.37;;;2.60;;
59062;SDS011;44851;45.648;9.004;2022-08-01T07:34:54;2.83;;;2.37;;
59062;SDS011;44851;45.648;9.004;2022-08-01T07:37:19;3.00;;;2.60;;
59062;SDS011;44851;45.648;9.004;2022-08-01T07:39:45;3.60;;;2.60;;
59062;SDS011;44851;45.648;9.004;2022-08-01T07:42:10;4.07;;;2.50;;
59062;SDS011;44851;45.648;9.004;2022-08-01T07:44:35;3.60;;;2.50;;
59062;SDS011;44851;45.648;9.004;2022-08-01T07:47:01;2.70;;;2.50;;
59062;SDS011;44851;45.648;9.004;2022-08-01T07:49:27;4.10;;;3.20;;
59062;SDS011;44851;45.648;9.004;2022-08-01T07:51:52;3.67;;;3.20;;
59062;SDS011;44851;45.648;9.004;2022-08-01T07:54:19;4.80;;;3.40;;
59062;SDS011;44851;45.648;9.004;2022-08-01T07:56:44;5.57;;;3.27;;
59062;SDS011;44851;45.648;9.004;2022-08-01T07:59:10;8.27;;;3.43;;
59062;SDS011;44851;45.648;9.004;2022-08-01T08:01:35;3.93;;;3.33;;
59062;SDS011;44851;45.648;9.004;2022-08-01T08:04:00;4.20;;;3.40;;
59062;SDS011;44851;45.648;9.004;2022-08-01T08:06:26;4.37;;;3.00;;
59062;SDS011;44851;45.648;9.004;2022-08-01T08:08:51;4.13;;;3.13;;
59062;SDS011;44851;45.648;9.004;2022-08-01T08:11:18;4.30;;;3.23;;
59062;SDS011;44851;45.648;9.004;2022-08-01T08:13:44;6.33;;;3.30;;
59062;SDS011;44851;45.648;9.004;2022-08-01T08:16:09;3.73;;;3.43;;
59062;SDS011;44851;45.648;9.004;2022-08-01T08:18:34;5.00;;;4.20;;
59062;SDS011;44851;45.648;9.004;2022-08-01T08:21:00;3.87;;;3.43;;
59062;SDS011;44851;45.648;9.004;2022-08-01T08:23:25;4.40;;;3.50;;
59062;SDS011;44851;45.648;9.004;2022-08-01T08:26:16;5.77;;;3.37;;
59062;SDS011;44851;45.648;9.004;2022-08-01T08:28:42;4.67;;;3.47;;
59062;SDS011;44851;45.648;9.004;2022-08-01T08:31:07;4.53;;;3.60;;
59062;SDS011;44851;45.648;9.004;2022-08-01T08:33:33;4.33;;;3.27;;
59062;SDS011;44851;45.648;9.004;2022-08-01T08:35:58;5.63;;;3.10;;
59062;SDS011;44851;45.648;9.004;2022-08-01T08:38:24;3.40;;;3.10;;
59062;SDS011;44851;45.648;9.004;2022-08-01T08:40:52;7.23;;;3.60;;
59062;SDS011;44851;45.648;9.004;2022-08-01T08:43:17;4.73;;;3.37;;
59062;SDS011;44851;45.648;9.004;2022-08-01T08:45:43;4.47;;;3.20;;
59062;SDS011;44851;45.648;9.004;2022-08-01T08:48:10;4.67;;;3.17;;
59062;SDS011;44851;45.648;9.004;2022-08-01T08:50:37;4.07;;;3.23;;
59062;SDS011;44851;45.648;9.004;2022-08-01T08:53:03;4.33;;;3.50;;
59062;SDS011;44851;45.648;9.004;2022-08-01T08:55:29;8.07;;;3.30;;
59062;SDS011;44851;45.648;9.004;2022-08-01T08:57:54;5.20;;;3.60;;
59062;SDS011;44851;45.648;9.004;2022-08-01T09:00:21;7.40;;;3.67;;
59062;SDS011;44851;45.648;9.004;2022-08-01T09:02:47;3.20;;;2.90;;
59062;SDS011;44851;45.648;9.004;2022-08-01T09:05:14;4.03;;;3.43;;
59062;SDS011;44851;45.648;9.004;2022-08-01T09:07:39;4.03;;;3.20;;
59062;SDS011;44851;45.648;9.004;2022-08-01T09:10:05;4.80;;;3.50;;
59062;SDS011;44851;45.648;9.004;2022-08-01T09:12:32;6.50;;;3.77;;
59062;SDS011;44851;45.648;9.004;2022-08-01T09:14:57;5.57;;;3.63;;
59062;SDS011;44851;45.648;9.004;2022-08-01T09:17:23;4.13;;;3.57;;
59062;SDS011;44851;45.648;9.004;2022-08-01T09:19:52;4.03;;;3.63;;
59062;SDS011;44851;45.648;9.004;2022-08-01T09:22:21;4.97;;;3.40;;
59062;SDS011;44851;45.648;9.004;2022-08-01T09:25:07;4.57;;;3.40;;
59062;SDS011;44851;45.648;9.004;2022-08-01T09:27:36;3.67;;;3.13;;
59062;SDS011;44851;45.648;9.004;2022-08-01T09:30:15;5.75;;;3.33;;
59062;SDS011;44851;45.648;9.004;2022-08-01T09:32:57;5.38;;;3.22;;
59062;SDS011;44851;45.648;9.004;2022-08-01T09:35:28;3.38;;;3.08;;
59062;SDS011;44851;45.648;9.004;2022-08-01T09:40:45;3.92;;;3.05;;
59062;SDS011;44851;45.648;9.004;2022-08-01T09:43:19;6.75;;;3.30;;
59062;SDS011;44851;45.648;9.004;2022-08-01T09:45:45;4.00;;;2.85;;
59062;SDS011;44851;45.648;9.004;2022-08-01T09:48:11;3.03;;;2.70;;
59062;SDS011;44851;45.648;9.004;2022-08-01T09:50:45;3.92;;;3.25;;
59062;SDS011;44851;45.648;9.004;2022-08-01T09:53:12;8.00;;;4.38;;
59062;SDS011;44851;45.648;9.004;2022-08-01T09:55:38;4.30;;;3.28;;
59062;SDS011;44851;45.648;9.004;2022-08-01T09:58:06;4.00;;;3.45;;
59062;SDS011;44851;45.648;9.004;2022-08-01T10:00:32;4.13;;;3.30;;
59062;SDS011;44851;45.648;9.004;2022-08-01T10:03:00;4.95;;;3.28;;
59062;SDS011;44851;45.648;9.004;2022-08-01T10:05:43;3.30;;;3.00;;
59062;SDS011;44851;45.648;9.004;2022-08-01T10:08:09;4.13;;;2.90;;
59062;SDS011;44851;45.648;9.004;2022-08-01T10:10:35;4.50;;;3.30;;
59062;SDS011;44851;45.648;9.004;2022-08-01T10:13:00;3.53;;;3.17;;
59062;SDS011;44851;45.648;9.004;2022-08-01T10:15:27;5.07;;;3.25;;
59062;SDS011;44851;45.648;9.004;2022-08-01T10:17:53;6.00;;;3.22;;
59062;SDS011;44851;45.648;9.004;2022-08-01T10:20:24;4.53;;;3.17;;
59062;SDS011;44851;45.648;9.004;2022-08-01T10:22:55;5.07;;;3.15;;
59062;SDS011;44851;45.648;9.004;2022-08-01T10:25:23;6.35;;;3.72;;
59062;SDS011;44851;45.648;9.004;2022-08-01T10:27:52;4.60;;;3.10;;
59062;SDS011;44851;45.648;9.004;2022-08-01T10:30:22;3.97;;;3.58;;
59062;SDS011;44851;45.648;9.004;2022-08-01T10:32:49;4.03;;;3.45;;
59062;SDS011;44851;45.648;9.004;2022-08-01T10:35:17;5.60;;;3.90;;
59062;SDS011;44851;45.648;9.004;2022-08-01T10:37:44;3.95;;;3.00;;
59062;SDS011;44851;45.648;9.004;2022-08-01T10:40:14;3.80;;;3.08;;
59062;SDS011;44851;45.648;9.004;2022-08-01T10:42:41;5.93;;;3.72;;
59062;SDS011;44851;45.648;9.004;2022-08-01T10:45:08;3.78;;;3.10;;
59062;SDS011;44851;45.648;9.004;2022-08-01T10:47:38;3.28;;;3.03;;
59062;SDS011;44851;45.648;9.004;2022-08-01T10:50:24;4.47;;;2.70;;
59062;SDS011;44851;45.648;9.004;2022-08-01T10:53:05;3.35;;;3.00;;
59062;SDS011;44851;45.648;9.004;2022-08-01T10:55:49;3.22;;;2.92;;
59062;SDS011;44851;45.648;9.004;2022-08-01T10:58:37;3.60;;;3.30;;
59062;SDS011;44851;45.648;9.004;2022-08-01T11:03:40;3.60;;;3.10;;
59062;SDS011;44851;45.648;9.004;2022-08-01T11:06:07;5.13;;;3.17;;
59062;SDS011;44851;45.648;9.004;2022-08-01T11:08:41;3.90;;;2.58;;
59062;SDS011;44851;45.648;9.004;2022-08-01T11:11:15;4.00;;;2.60;;
59062;SDS011;44851;45.648;9.004;2022-08-01T11:16:29;2.50;;;2.30;;
59062;SDS011;44851;45.648;9.004;2022-08-01T11:18:59;3.35;;;2.28;;
59062;SDS011;44851;45.648;9.004;2022-08-01T11:27:29;4.82;;;2.65;;
59062;SDS011;44851;45.648;9.004;2022-08-01T11:32:33;6.75;;;2.80;;
59062;SDS011;44851;45.648;9.004;2022-08-01T11:35:10;5.68;;;3.00;;
59062;SDS011;44851;45.648;9.004;2022-08-01T11:37:35;3.50;;;2.70;;
59062;SDS011;44851;45.648;9.004;2022-08-01T11:42:50;4.68;;;2.65;;
59062;SDS011;44851;45.648;9.004;2022-08-01T11:45:48;2.80;;;2.60;;
59062;SDS011;44851;45.648;9.004;2022-08-01T11:48:19;3.00;;;2.67;;
59062;SDS011;44851;45.648;9.004;2022-08-01T11:50:45;3.83;;;2.90;;
59062;SDS011;44851;45.648;9.004;2022-08-01T11:53:11;2.78;;;2.30;;
59062;SDS011;44851;45.648;9.004;2022-08-01T11:55:43;3.60;;;2.25;;
59062;SDS011;44851;45.648;9.004;2022-08-01T11:58:25;4.07;;;2.70;;
59062;SDS011;44851;45.648;9.004;2022-08-01T12:03:28;3.28;;;2.97;;
59062;SDS011;44851;45.648;9.004;2022-08-01T12:05:56;3.90;;;3.30;;
59062;SDS011;44851;45.648;9.004;2022-08-01T12:08:25;4.35;;;2.90;;
59062;SDS011;44851;45.648;9.004;2022-08-01T12:10:52;3.03;;;2.60;;
59062;SDS011;44851;45.648;9.004;2022-08-01T12:13:18;2.88;;;2.45;;
59062;SDS011;44851;45.648;9.004;2022-08-01T12:15:44;2.67;;;2.30;;
59062;SDS011;44851;45.648;9.004;2022-08-01T12:18:10;2.72;;;2.53;;
59062;SDS011;44851;45.648;9.004;2022-08-01T12:20:38;3.83;;;2.55;;
59062;SDS011;44851;45.648;9.004;2022-08-01T12:23:08;3.88;;;3.58;;
59062;SDS011;44851;45.648;9.004;2022-08-01T12:25:35;3.45;;;2.60;;
59062;SDS011;44851;45.648;9.004;2022-08-01T12:28:05;2.50;;;2.20;;
59062;SDS011;44851;45.648;9.004;2022-08-01T12:30:31;3.28;;;2.88;;
59062;SDS011;44851;45.648;9.004;2022-08-01T12:33:05;2.75;;;2.50;;
59062;SDS011;44851;45.648;9.004;2022-08-01T12:35:35;2.40;;;2.20;;
59062;SDS011;44851;45.648;9.004;2022-08-01T12:38:03;2.75;;;2.28;;
59062;SDS011;44851;45.648;9.004;2022-08-01T12:40:31;3.45;;;2.95;;
59062;SDS011;44851;45.648;9.004;2022-08-01T12:42:58;2.78;;;2.58;;
59062;SDS011;44851;45.648;9.004;2022-08-01T12:45:28;3.00;;;2.28;;
59062;SDS011;44851;45.648;9.004;2022-08-01T12:47:59;5.32;;;2.88;;
59062;SDS011;44851;45.648;9.004;2022-08-01T12:50:27;2.33;;;2.13;;
59062;SDS011;44851;45.648;9.004;2022-08-01T12:52:55;3.42;;;2.38;;
59062;SDS011;44851;45.648;9.004;2022-08-01T12:55:21;3.45;;;2.80;;
59062;SDS011;44851;45.648;9.004;2022-08-01T12:58:05;4.75;;;2.90;;
59062;SDS011;44851;45.648;9.004;2022-08-01T13:00:32;2.58;;;2.38;;
59062;SDS011;44851;45.648;9.004;2022-08-01T13:03:14;4.07;;;2.10;;
59062;SDS011;44851;45.648;9.004;2022-08-01T13:05:55;2.97;;;2.50;;
59062;SDS011;44851;45.648;9.004;2022-08-01T13:08:29;3.95;;;2.20;;
59062;SDS011;44851;45.648;9.004;2022-08-01T13:11:00;3.45;;;2.30;;
59062;SDS011;44851;45.648;9.004;2022-08-01T13:16:17;2.45;;;2.25;;
59062;SDS011;44851;45.648;9.004;2022-08-01T13:18:48;2.47;;;1.85;;
59062;SDS011;44851;45.648;9.004;2022-08-01T13:24:05;2.40;;;2.20;;
59062;SDS011;44851;45.648;9.004;2022-08-01T13:29:09;2.20;;;2.00;;
59062;SDS011;44851;45.648;9.004;2022-08-01T13:31:36;6.25;;;3.33;;
59062;SDS011;44851;45.648;9.004;2022-08-01T13:34:02;3.03;;;2.25;;
59062;SDS011;44851;45.648;9.004;2022-08-01T13:36:28;4.60;;;2.50;;
59062;SDS011;44851;45.648;9.004;2022-08-01T13:38:56;2.08;;;1.88;;
59062;SDS011;44851;45.648;9.004;2022-08-01T13:41:40;3.50;;;1.88;;
59062;SDS011;44851;45.648;9.004;2022-08-01T13:44:06;2.53;;;2.10;;
59062;SDS011;44851;45.648;9.004;2022-08-01T13:46:33;1.98;;;1.88;;
59062;SDS011;44851;45.648;9.004;2022-08-01T13:48:59;2.55;;;1.90;;
59062;SDS011;44851;45.648;9.004;2022-08-01T13:51:25;2.35;;;1.85;;
59062;SDS011;44851;45.648;9.004;2022-08-01T13:53:50;2.05;;;1.95;;
59062;SDS011;44851;45.648;9.004;2022-08-01T13:56:15;2.33;;;2.13;;
59062;SDS011;44851;45.648;9.004;2022-08-01T13:58:42;1.80;;;1.70;;
59062;SDS011;44851;45.648;9.004;2022-08-01T14:01:08;2.53;;;1.83;;
59062;SDS011;44851;45.648;9.004;2022-08-01T14:03:33;2.60;;;1.90;;
59062;SDS011;44851;45.648;9.004;2022-08-01T14:05:58;1.85;;;1.75;;
59062;SDS011;44851;45.648;9.004;2022-08-01T14:08:24;3.25;;;1.70;;
59062;SDS011;44851;45.648;9.004;2022-08-01T14:10:49;2.38;;;1.80;;
59062;SDS011;44851;45.648;9.004;2022-08-01T14:13:14;3.67;;;1.75;;
59062;SDS011;44851;45.648;9.004;2022-08-01T14:15:40;3.63;;;1.90;;
59062;SDS011;44851;45.648;9.004;2022-08-01T14:18:08;2.00;;;1.80;;
59062;SDS011;44851;45.648;9.004;2022-08-01T14:20:34;2.42;;;2.20;;
59062;SDS011;44851;45.648;9.004;2022-08-01T14:23:00;1.73;;;1.63;;
59062;SDS011;44851;45.648;9.004;2022-08-01T14:25:26;2.78;;;1.83;;
59062;SDS011;44851;45.648;9.004;2022-08-01T14:27:51;2.60;;;1.90;;
59062;SDS011;44851;45.648;9.004;2022-08-01T14:30:17;2.40;;;1.83;;
59062;SDS011;44851;45.648;9.004;2022-08-01T14:32:42;3.58;;;2.00;;
59062;SDS011;44851;45.648;9.004;2022-08-01T14:35:07;4.57;;;2.22;;
59062;SDS011;44851;45.648;9.004;2022-08-01T14:37:33;1.83;;;1.70;;
59062;SDS011;44851;45.648;9.004;2022-08-01T14:39:59;2.20;;;2.00;;
59062;SDS011;44851;45.648;9.004;2022-08-01T14:42:29;2.10;;;1.90;;
59062;SDS011;44851;45.648;9.004;2022-08-01T14:44:54;3.22;;;2.40;;
59062;SDS011;44851;45.648;9.004;2022-08-01T14:47:19;2.63;;;2.25;;
59062;SDS011;44851;45.648;9.004;2022-08-01T14:49:45;4.03;;;2.15;;
59062;SDS011;44851;45.648;9.004;2022-08-01T14:52:10;2.90;;;2.20;;
59062;SDS011;44851;45.648;9.004;2022-08-01T14:54:36;3.35;;;2.00;;
59062;SDS011;44851;45.648;9.004;2022-08-01T14:57:01;1.98;;;1.80;;
59062;SDS011;44851;45.648;9.004;2022-08-01T14:59:26;2.22;;;1.90;;
59062;SDS011;44851;45.648;9.004;2022-08-01T15:01:52;2.25;;;1.70;;
59062;SDS011;44851;45.648;9.004;2022-08-01T15:04:17;3.15;;;1.83;;
59062;SDS011;44851;45.648;9.004;2022-08-01T15:06:43;2.45;;;1.95;;
59062;SDS011;44851;45.648;9.004;2022-08-01T15:09:09;3.50;;;1.70;;
59062;SDS011;44851;45.648;9.004;2022-08-01T15:11:35;2.08;;;1.80;;
59062;SDS011;44851;45.648;9.004;2022-08-01T15:14:00;2.20;;;1.90;;
59062;SDS011;44851;45.648;9.004;2022-08-01T15:16:44;2.35;;;2.00;;
59062;SDS011;44851;45.648;9.004;2022-08-01T15:19:10;3.53;;;2.10;;
59062;SDS011;44851;45.648;9.004;2022-08-01T15:21:35;2.38;;;1.80;;
59062;SDS011;44851;45.648;9.004;2022-08-01T15:24:00;2.80;;;2.10;;
59062;SDS011;44851;45.648;9.004;2022-08-01T15:26:26;2.17;;;2.00;;
59062;SDS011;44851;45.648;9.004;2022-08-01T15:28:53;2.38;;;2.17;;
59062;SDS011;44851;45.648;9.004;2022-08-01T15:31:18;2.30;;;2.10;;
59062;SDS011;44851;45.648;9.004;2022-08-01T15:33:43;3.63;;;2.38;;
59062;SDS011;44851;45.648;9.004;2022-08-01T15:36:09;2.40;;;2.20;;
59062;SDS011;44851;45.648;9.004;2022-08-01T15:38:34;2.58;;;2.17;;